Time;durP1;ratioP1;P1;durP2;ratioP2;P2;SDS_P1;SDS_P2;PMS_P1;PMS_P2;Temp;Humidity;BMP_temperature;BMP_pressure;BME280_temperature;BME280_humidity;BME280_pressure;Samples;Min_cycle;Max_cycle;Signal;HPM_P1;HPM_P2
2022/08/15 00:01:59;;;;;;;11.80;10.60;;;22.70;97.70;;;;;;5033941;28;20048;-63
2022/08/15 00:04:25;;;;;;;12.52;10.20;;;22.70;97.80;;;;;;5029691;28;20045;-64
2022/08/15 00:06:50;;;;;;;11.73;10.15;;;22.70;97.90;;;;;;5027622;28;20083;-64
2022/08/15 00:09:19;;;;;;;11.13;10.02;;;22.60;98.00;;;;;;5031271;28;20072;-63
2022/08/15 00:11:49;;;;;;;11.70;10.50;;;22.70;98.20;;;;;;5026824;28;20037;-63
2022/08/15 00:14:29;;;;;;;11.02;9.90;;;22.60;98.30;;;;;;5030831;28;20056;-63
2022/08/15 00:16:56;;;;;;;11.13;9.95;;;22.60;98.30;;;;;;5036769;28;20065;-63
2022/08/15 00:19:29;;;;;;;11.57;10.18;;;22.60;98.40;;;;;;5026916;28;20113;-63
2022/08/15 00:21:59;;;;;;;11.85;10.23;;;22.60;98.50;;;;;;5035116;28;20045;-63
2022/08/15 00:24:27;;;;;;;11.48;10.27;;;22.50;98.60;;;;;;5026131;28;20049;-64
2022/08/15 00:26:54;;;;;;;11.38;10.18;;;22.50;98.80;;;;;;5029832;28;20048;-63
2022/08/15 00:29:23;;;;;;;10.02;8.95;;;22.50;98.60;;;;;;5030883;28;20049;-64
2022/08/15 00:31:53;;;;;;;11.85;9.27;;;22.50;98.60;;;;;;5033166;28;20037;-63
2022/08/15 00:34:20;;;;;;;10.35;9.10;;;22.50;98.70;;;;;;5028409;28;20112;-63
2022/08/15 00:36:50;;;;;;;10.93;9.82;;;22.40;98.70;;;;;;5034960;28;20047;-64
2022/08/15 00:39:17;;;;;;;11.05;9.85;;;22.40;98.80;;;;;;5036356;28;20049;-64
2022/08/15 00:41:43;;;;;;;11.45;10.07;;;22.40;98.80;;;;;;5032820;28;20041;-64
2022/08/15 00:44:16;;;;;;;12.00;9.52;;;22.40;98.90;;;;;;5026675;28;20106;-63
2022/08/15 00:46:54;;;;;;;10.80;9.57;;;22.30;98.90;;;;;;5031329;28;20384;-64
2022/08/15 00:49:21;;;;;;;13.15;10.00;;;22.30;99.00;;;;;;5028957;28;20107;-64
2022/08/15 00:51:52;;;;;;;10.80;9.70;;;22.30;99.10;;;;;;5028570;28;20041;-63
2022/08/15 00:54:34;;;;;;;11.13;9.90;;;22.30;99.20;;;;;;5028301;28;22071;-64
2022/08/15 00:57:06;;;;;;;11.65;9.63;;;22.30;99.30;;;;;;5036698;28;20045;-64
2022/08/15 00:59:40;;;;;;;11.90;10.57;;;22.20;99.30;;;;;;5036441;28;20121;-64
2022/08/15 01:02:10;;;;;;;11.50;9.82;;;22.30;99.40;;;;;;5039093;28;20982;-64
2022/08/15 01:04:37;;;;;;;12.77;10.30;;;22.30;99.50;;;;;;5044066;28;20071;-63
2022/08/15 01:07:03;;;;;;;11.73;10.38;;;22.30;99.50;;;;;;5031625;28;20053;-64
2022/08/15 01:09:30;;;;;;;11.32;10.02;;;22.30;99.60;;;;;;5034200;28;20087;-63
2022/08/15 01:12:07;;;;;;;12.10;10.65;;;22.30;99.70;;;;;;5034508;28;20444;-63
2022/08/15 01:14:35;;;;;;;13.25;10.52;;;22.30;99.70;;;;;;5039794;28;20033;-64
2022/08/15 01:17:01;;;;;;;13.18;10.95;;;22.30;99.90;;;;;;5037065;28;20041;-64
2022/08/15 01:19:36;;;;;;;11.63;10.30;;;22.20;99.90;;;;;;5038779;28;20044;-63
2022/08/15 01:22:23;;;;;;;12.00;10.48;;;22.30;99.90;;;;;;5036255;28;20053;-63
2022/08/15 01:24:58;;;;;;;11.95;10.57;;;22.30;99.90;;;;;;5030366;28;20528;-64
2022/08/15 01:27:29;;;;;;;12.70;10.48;;;22.20;99.90;;;;;;5040232;28;20056;-64
2022/08/15 01:29:56;;;;;;;12.23;10.07;;;22.30;99.90;;;;;;5035880;28;20045;-64
2022/08/15 01:32:21;;;;;;;12.40;10.95;;;22.20;99.90;;;;;;5033260;28;20111;-64
2022/08/15 01:34:47;;;;;;;13.32;10.30;;;22.20;99.90;;;;;;5034385;28;20138;-64
2022/08/15 01:37:13;;;;;;;12.93;10.57;;;22.20;99.90;;;;;;5031814;28;20040;-64
2022/08/15 01:39:59;;;;;;;14.02;10.70;;;22.20;99.90;;;;;;5039481;28;20124;-64
2022/08/15 01:42:43;;;;;;;12.38;11.13;;;22.30;99.90;;;;;;5038678;28;20114;-64
2022/08/15 01:45:14;;;;;;;13.32;10.63;;;22.30;99.90;;;;;;5039246;28;20166;-63
2022/08/15 01:48:12;;;;;;;12.43;10.85;;;22.30;99.90;;;;;;5036601;28;20057;-63
2022/08/15 01:50:47;;;;;;;12.40;11.02;;;22.30;99.90;;;;;;5032113;28;20083;-63
2022/08/15 01:53:12;;;;;;;11.73;10.23;;;22.30;99.90;;;;;;5038131;28;20160;-63
2022/08/15 01:56:03;;;;;;;12.07;10.75;;;22.30;99.90;;;;;;5033067;28;20143;-64
2022/08/15 01:58:29;;;;;;;12.65;10.75;;;22.40;99.90;;;;;;5029256;28;20477;-63
2022/08/15 02:01:00;;;;;;;10.98;9.88;;;22.30;99.90;;;;;;5040290;28;20045;-64
2022/08/15 02:03:34;;;;;;;14.48;10.80;;;22.40;99.90;;;;;;5043689;28;20144;-63
2022/08/15 02:06:05;;;;;;;11.40;10.20;;;22.40;99.90;;;;;;5037102;28;20489;-63
2022/08/15 02:08:30;;;;;;;11.80;10.52;;;22.40;99.90;;;;;;5030426;28;20059;-63
2022/08/15 02:10:56;;;;;;;11.43;10.07;;;22.40;99.90;;;;;;5036413;28;20037;-62
2022/08/15 02:13:23;;;;;;;11.38;10.07;;;22.30;99.90;;;;;;5042588;28;20041;-62
2022/08/15 02:15:49;;;;;;;10.63;9.57;;;22.30;99.90;;;;;;5040052;28;20095;-64
2022/08/15 02:18:15;;;;;;;11.40;10.25;;;22.30;99.90;;;;;;5034548;28;20038;-63
2022/08/15 02:20:40;;;;;;;12.45;9.98;;;22.30;99.90;;;;;;5031746;28;20118;-63
2022/08/15 02:23:06;;;;;;;12.77;10.52;;;22.30;99.90;;;;;;5042367;28;20041;-63
2022/08/15 02:25:32;;;;;;;11.48;9.80;;;22.30;99.90;;;;;;5034236;28;20484;-64
2022/08/15 02:27:57;;;;;;;12.30;10.98;;;22.30;99.90;;;;;;5040139;28;20045;-64
2022/08/15 02:30:26;;;;;;;10.93;9.77;;;22.20;99.90;;;;;;5035111;28;20068;-63
2022/08/15 02:32:51;;;;;;;11.95;10.60;;;22.20;99.90;;;;;;5037973;28;20475;-64
2022/08/15 02:35:17;;;;;;;11.50;10.30;;;22.20;99.90;;;;;;5040634;28;20037;-63
2022/08/15 02:37:44;;;;;;;12.10;10.18;;;22.20;99.90;;;;;;5043762;28;20072;-64
2022/08/15 02:40:12;;;;;;;11.38;9.77;;;22.20;99.90;;;;;;5036387;28;20146;-64
2022/08/15 02:42:38;;;;;;;11.93;10.63;;;22.10;99.90;;;;;;5040620;28;20037;-64
2022/08/15 02:45:10;;;;;;;11.27;10.05;;;22.10;99.90;;;;;;5039406;28;20187;-64
2022/08/15 02:47:37;;;;;;;11.27;9.90;;;22.10;99.90;;;;;;5040307;28;20041;-64
2022/08/15 02:50:06;;;;;;;10.82;9.60;;;22.10;99.90;;;;;;5042111;28;20049;-64
2022/08/15 02:52:38;;;;;;;11.48;9.55;;;22.10;99.90;;;;;;5039237;28;20034;-64
2022/08/15 02:55:04;;;;;;;12.02;9.70;;;22.00;99.90;;;;;;5031105;28;20041;-64
2022/08/15 02:57:32;;;;;;;11.80;10.60;;;22.00;99.90;;;;;;5032912;28;20139;-64
2022/08/15 02:59:57;;;;;;;12.15;10.25;;;22.00;99.90;;;;;;5034016;28;20072;-64
2022/08/15 03:02:23;;;;;;;10.63;9.52;;;21.90;99.90;;;;;;5030690;28;20073;-64
2022/08/15 03:04:49;;;;;;;11.20;9.35;;;21.90;99.90;;;;;;5036089;28;20104;-64
2022/08/15 03:07:14;;;;;;;11.82;10.00;;;21.90;99.90;;;;;;5044815;28;20166;-64
2022/08/15 03:09:40;;;;;;;11.25;9.60;;;21.90;99.90;;;;;;5042058;28;20037;-64
2022/08/15 03:12:07;;;;;;;11.43;9.60;;;21.80;99.90;;;;;;5043440;28;20041;-64
2022/08/15 03:14:35;;;;;;;12.23;9.85;;;21.80;99.90;;;;;;5040176;28;20059;-64
2022/08/15 03:17:02;;;;;;;11.68;9.80;;;21.80;99.90;;;;;;5042789;28;20037;-64
2022/08/15 03:19:28;;;;;;;12.15;9.98;;;21.80;99.90;;;;;;5043151;28;20148;-64
2022/08/15 03:21:54;;;;;;;12.85;11.25;;;21.70;99.90;;;;;;5042755;28;20146;-64
2022/08/15 03:24:22;;;;;;;12.25;10.95;;;21.70;99.90;;;;;;5040854;28;20323;-64
2022/08/15 03:26:48;;;;;;;13.93;11.70;;;21.70;99.90;;;;;;5039834;28;20131;-64
2022/08/15 03:29:16;;;;;;;13.23;11.50;;;21.70;99.90;;;;;;5033374;28;20069;-64
2022/08/15 03:31:43;;;;;;;13.35;11.95;;;21.60;99.90;;;;;;5036770;28;20069;-64
2022/08/15 03:34:09;;;;;;;14.38;12.18;;;21.60;99.90;;;;;;5037337;28;20056;-64
2022/08/15 03:36:36;;;;;;;14.27;12.88;;;21.50;99.90;;;;;;5035685;28;20438;-64
2022/08/15 03:39:03;;;;;;;14.95;12.40;;;21.50;99.90;;;;;;5032703;28;20045;-63
2022/08/15 03:41:28;;;;;;;14.95;13.00;;;21.50;99.90;;;;;;5040934;28;20429;-63
2022/08/15 03:43:54;;;;;;;13.88;12.10;;;21.40;99.90;;;;;;5037292;28;20048;-63
2022/08/15 03:46:21;;;;;;;12.73;11.40;;;21.40;99.90;;;;;;5042058;28;20158;-63
2022/08/15 03:48:52;;;;;;;12.93;11.27;;;21.40;99.90;;;;;;5043147;28;20127;-63
2022/08/15 03:51:20;;;;;;;12.57;11.02;;;21.40;99.90;;;;;;5052606;28;20048;-63
2022/08/15 03:53:51;;;;;;;13.45;12.05;;;21.40;99.90;;;;;;5037284;28;20076;-63
2022/08/15 03:56:24;;;;;;;15.27;11.75;;;21.40;99.90;;;;;;5029304;28;20493;-64
2022/08/15 03:58:50;;;;;;;13.90;12.40;;;21.30;99.90;;;;;;5036574;28;20432;-63
2022/08/15 04:01:18;;;;;;;14.25;12.25;;;21.30;99.90;;;;;;5031791;28;20049;-63
2022/08/15 04:03:49;;;;;;;14.90;12.13;;;21.30;99.90;;;;;;5042153;28;20120;-63
2022/08/15 04:06:18;;;;;;;14.52;12.55;;;21.30;99.90;;;;;;5042456;28;20045;-64
2022/08/15 04:08:46;;;;;;;14.95;13.45;;;21.20;99.90;;;;;;5040341;28;20103;-63
2022/08/15 04:11:12;;;;;;;16.27;13.75;;;21.20;99.90;;;;;;5038247;28;20045;-63
2022/08/15 04:13:39;;;;;;;16.20;13.32;;;21.20;99.90;;;;;;5030348;28;20718;-63
2022/08/15 04:16:06;;;;;;;15.75;13.50;;;21.20;99.90;;;;;;5039644;28;20049;-63
2022/08/15 04:18:32;;;;;;;15.85;14.07;;;21.20;99.90;;;;;;5039423;28;20045;-63
2022/08/15 04:21:01;;;;;;;16.17;14.35;;;21.10;99.90;;;;;;5031742;28;20037;-63
2022/08/15 04:23:27;;;;;;;15.65;13.90;;;21.10;99.90;;;;;;5038541;28;20057;-63
2022/08/15 04:25:53;;;;;;;16.35;14.45;;;21.00;99.90;;;;;;5037460;28;20510;-63
2022/08/15 04:28:20;;;;;;;17.10;14.65;;;21.00;99.90;;;;;;5029413;28;20041;-64
2022/08/15 04:30:48;;;;;;;14.73;13.13;;;21.00;99.90;;;;;;5036606;28;20057;-64
2022/08/15 04:33:20;;;;;;;15.85;13.73;;;21.00;99.90;;;;;;5034259;28;20140;-64
2022/08/15 04:35:52;;;;;;;16.40;12.95;;;21.00;99.90;;;;;;5030739;28;20122;-63
2022/08/15 04:38:18;;;;;;;13.68;12.15;;;21.00;99.90;;;;;;5027864;28;20103;-64
2022/08/15 04:40:46;;;;;;;15.02;11.82;;;21.00;99.90;;;;;;5036138;28;20093;-64
2022/08/15 04:43:13;;;;;;;13.30;11.82;;;21.00;99.90;;;;;;5039082;28;20048;-64
2022/08/15 04:45:40;;;;;;;13.90;12.30;;;21.00;99.90;;;;;;5034750;28;20045;-64
2022/08/15 04:48:07;;;;;;;14.80;12.02;;;21.00;99.90;;;;;;5039279;28;20091;-68
2022/08/15 04:50:38;;;;;;;14.13;12.48;;;20.90;99.90;;;;;;5026811;28;20037;-67
2022/08/15 04:53:07;;;;;;;15.65;13.27;;;20.90;99.90;;;;;;5030024;28;20069;-68
2022/08/15 04:55:35;;;;;;;15.05;13.15;;;20.90;99.90;;;;;;5038682;28;20052;-68
2022/08/15 04:58:02;;;;;;;17.40;14.05;;;20.90;99.90;;;;;;5038959;28;20045;-68
2022/08/15 05:00:30;;;;;;;14.65;13.05;;;20.90;99.90;;;;;;5040953;28;20067;-68
2022/08/15 05:03:01;;;;;;;16.98;14.10;;;20.90;99.90;;;;;;5035736;28;20049;-67
2022/08/15 05:05:28;;;;;;;16.15;13.45;;;20.90;99.90;;;;;;5036634;28;20036;-68
2022/08/15 05:07:53;;;;;;;16.58;13.93;;;20.90;99.90;;;;;;5042744;28;20065;-67
2022/08/15 05:10:19;;;;;;;17.15;13.75;;;20.90;99.90;;;;;;5030197;28;20099;-67
2022/08/15 05:12:45;;;;;;;14.82;12.85;;;21.00;99.90;;;;;;5031990;28;20065;-67
2022/08/15 05:15:13;;;;;;;17.92;13.00;;;20.90;99.90;;;;;;5043717;28;20038;-67
2022/08/15 05:17:39;;;;;;;16.20;13.80;;;21.00;99.90;;;;;;5056377;28;20397;-67
2022/08/15 05:20:07;;;;;;;15.35;13.68;;;21.00;99.90;;;;;;5060802;28;20477;-67
2022/08/15 05:22:32;;;;;;;17.23;14.95;;;21.10;99.90;;;;;;5042236;28;20088;-66
2022/08/15 05:24:58;;;;;;;18.27;15.48;;;21.10;99.90;;;;;;5045332;28;20372;-66
2022/08/15 05:27:24;;;;;;;16.65;14.85;;;21.20;99.90;;;;;;5041978;28;20036;-66
2022/08/15 05:29:51;;;;;;;18.15;15.70;;;21.20;99.90;;;;;;5033029;28;20163;-66
2022/08/15 05:32:18;;;;;;;17.90;15.23;;;21.30;99.90;;;;;;5036118;28;20124;-66
2022/08/15 05:34:43;;;;;;;15.55;13.60;;;21.30;99.90;;;;;;5030707;28;20052;-66
2022/08/15 05:37:11;;;;;;;15.60;13.57;;;21.40;99.90;;;;;;5039147;28;20049;-66
2022/08/15 05:39:38;;;;;;;16.45;14.10;;;21.40;99.90;;;;;;5034014;28;20103;-66
2022/08/15 05:42:10;;;;;;;14.57;12.75;;;21.50;99.90;;;;;;5044518;28;20040;-66
2022/08/15 05:44:45;;;;;;;15.13;13.52;;;21.50;99.90;;;;;;5045719;28;20171;-66
2022/08/15 05:47:19;;;;;;;15.20;13.57;;;21.50;99.90;;;;;;5035312;28;20122;-66
2022/08/15 05:49:52;;;;;;;;;;;21.50;99.90;;;;;;5033073;28;20063;-65
2022/08/15 05:52:23;;;;;;;14.18;12.70;;;21.60;99.90;;;;;;5050834;28;19936;-65
2022/08/15 05:55:17;;;;;;;15.23;13.63;;;21.70;99.90;;;;;;5038997;28;20356;-65
2022/08/15 05:58:09;;;;;;;14.93;13.35;;;21.70;99.90;;;;;;5039473;28;20077;-66
2022/08/15 06:00:36;;;;;;;15.60;13.35;;;21.80;99.90;;;;;;5038985;28;20046;-65
2022/08/15 06:03:23;;;;;;;16.45;13.50;;;21.90;99.90;;;;;;5039201;28;20045;-65
2022/08/15 06:05:53;;;;;;;14.23;12.75;;;22.00;99.90;;;;;;5044224;28;20140;-65
2022/08/15 06:08:27;;;;;;;17.25;14.13;;;22.10;99.90;;;;;;5044303;28;20056;-65
2022/08/15 06:11:09;;;;;;;19.67;14.27;;;22.10;99.90;;;;;;5036776;28;20056;-65
2022/08/15 06:13:42;;;;;;;17.65;13.70;;;22.10;99.90;;;;;;5044166;28;20045;-65
2022/08/15 06:16:28;;;;;;;14.95;13.35;;;22.20;99.90;;;;;;5040507;28;20119;-66
2022/08/15 06:18:56;;;;;;;17.63;13.60;;;22.30;99.90;;;;;;5034551;28;20044;-65
2022/08/15 06:21:36;;;;;;;14.18;12.52;;;22.40;99.90;;;;;;5036774;28;20132;-65
2022/08/15 06:25:03;;;;;;;14.95;12.32;;;22.50;99.90;;;;;;5048259;28;20053;-65
2022/08/15 06:28:02;;;;;;;14.32;11.70;;;22.60;99.90;;;;;;5013933;28;20116;-66
2022/08/15 06:30:45;;;;;;;15.20;12.32;;;22.80;99.90;;;;;;4989990;28;20153;-66
2022/08/15 06:33:50;;;;;;;14.45;12.13;;;22.90;99.90;;;;;;5033743;28;20497;-66
2022/08/15 06:36:23;;;;;;;13.40;11.75;;;23.00;99.90;;;;;;5049840;28;20056;-65
2022/08/15 06:39:01;;;;;;;14.50;12.93;;;23.10;99.90;;;;;;5048712;28;20098;-64
2022/08/15 06:41:48;;;;;;;14.77;12.15;;;23.20;99.90;;;;;;5048873;28;20112;-64
2022/08/15 06:44:15;;;;;;;15.35;11.82;;;23.20;99.90;;;;;;5051048;28;20126;-65
2022/08/15 06:46:41;;;;;;;13.50;12.10;;;23.10;99.90;;;;;;5039737;28;20045;-65
2022/08/15 06:49:11;;;;;;;13.88;12.23;;;23.20;99.90;;;;;;5046789;28;20041;-64
2022/08/15 06:51:38;;;;;;;14.35;12.60;;;23.20;99.90;;;;;;5046656;28;20045;-64
2022/08/15 06:54:11;;;;;;;15.57;12.85;;;23.20;99.90;;;;;;5048997;28;20037;-64
2022/08/15 06:56:54;;;;;;;13.80;11.93;;;23.20;99.90;;;;;;5050480;28;20049;-65
2022/08/15 06:59:35;;;;;;;14.23;11.40;;;23.40;99.90;;;;;;5030059;28;20046;-64
2022/08/15 07:02:21;;;;;;;11.60;9.82;;;23.40;99.90;;;;;;5041257;28;21151;-64
2022/08/15 07:04:50;;;;;;;13.38;11.57;;;23.60;99.90;;;;;;5045683;28;20037;-65
2022/08/15 07:07:46;;;;;;;14.73;13.20;;;23.70;99.80;;;;;;5034774;28;20069;-64
2022/08/15 07:10:29;;;;;;;14.02;12.48;;;23.90;99.50;;;;;;5050565;28;20049;-65
2022/08/15 07:13:04;;;;;;;12.77;11.18;;;23.90;99.40;;;;;;5035504;28;20136;-65
2022/08/15 07:15:58;;;;;;;13.15;11.77;;;24.00;99.30;;;;;;5048196;28;20075;-65
2022/08/15 07:18:49;;;;;;;12.10;10.88;;;24.20;99.10;;;;;;5049510;28;20211;-65
2022/08/15 07:21:18;;;;;;;14.82;12.60;;;24.30;98.90;;;;;;5049036;28;20037;-65
2022/08/15 07:24:11;;;;;;;12.90;9.65;;;24.50;98.90;;;;;;5046414;28;20147;-65
2022/08/15 07:27:01;;;;;;;12.88;10.63;;;24.70;98.60;;;;;;5046491;28;20041;-65
2022/08/15 07:29:36;;;;;;;11.55;10.35;;;24.80;98.20;;;;;;5045614;28;20500;-65
2022/08/15 07:32:10;;;;;;;11.93;10.45;;;24.90;97.80;;;;;;5039362;28;20045;-64
2022/08/15 07:34:39;;;;;;;;;;;25.00;97.70;;;;;;5043609;28;20144;-66
2022/08/15 07:37:06;;;;;;;14.60;11.50;;;25.10;97.60;;;;;;5046704;28;20338;-65
2022/08/15 07:39:35;;;;;;;12.70;11.40;;;25.30;97.50;;;;;;5048828;28;20049;-65
2022/08/15 07:42:18;;;;;;;13.00;11.57;;;25.50;97.00;;;;;;5047011;28;20380;-65
2022/08/15 07:44:59;;;;;;;13.27;10.80;;;25.60;96.40;;;;;;5046967;28;20160;-64
2022/08/15 07:47:30;;;;;;;13.98;12.05;;;25.70;96.20;;;;;;5049537;28;20491;-65
2022/08/15 07:50:03;;;;;;;10.35;8.80;;;25.60;95.90;;;;;;5046374;28;20344;-65
2022/08/15 07:52:30;;;;;;;11.73;9.77;;;25.50;95.80;;;;;;5048214;28;20045;-65
2022/08/15 07:55:13;;;;;;;14.20;11.93;;;25.50;95.80;;;;;;5049825;28;20134;-65
2022/08/15 07:57:41;;;;;;;14.18;10.95;;;25.50;95.60;;;;;;5045109;28;20056;-65
2022/08/15 08:00:13;;;;;;;14.07;12.15;;;25.50;95.30;;;;;;5040700;28;20532;-65
2022/08/15 08:03:08;;;;;;;14.15;12.70;;;25.70;95.20;;;;;;5045205;28;20143;-66
2022/08/15 08:05:54;;;;;;;10.88;9.65;;;25.70;94.90;;;;;;5034415;28;20043;-66
2022/08/15 08:08:25;;;;;;;14.57;12.93;;;25.90;95.20;;;;;;5042712;28;20045;-66
2022/08/15 08:11:01;;;;;;;13.27;11.73;;;26.10;94.90;;;;;;5041953;28;20138;-63
2022/08/15 08:13:48;;;;;;;13.23;11.82;;;26.30;94.80;;;;;;5049819;28;20106;-63
2022/08/15 08:16:25;;;;;;;15.27;13.68;;;26.50;94.80;;;;;;5036179;28;20051;-63
2022/08/15 08:19:03;;;;;;;14.25;12.30;;;26.60;94.00;;;;;;5042805;28;20455;-63
2022/08/15 08:21:53;;;;;;;13.35;11.82;;;26.70;93.90;;;;;;5048450;28;20056;-64
2022/08/15 08:24:53;;;;;;;13.88;11.73;;;26.70;93.20;;;;;;5046720;28;20055;-63
2022/08/15 08:27:31;;;;;;;14.10;12.60;;;26.80;93.40;;;;;;5040473;28;20037;-63
2022/08/15 08:30:10;;;;;;;14.52;12.70;;;26.90;93.60;;;;;;5045919;28;20064;-63
2022/08/15 08:32:50;;;;;;;13.65;12.20;;;27.00;93.50;;;;;;5048838;28;20095;-63
2022/08/15 08:35:41;;;;;;;13.52;10.77;;;27.10;93.40;;;;;;5047176;28;20373;-64
2022/08/15 08:38:12;;;;;;;11.63;9.65;;;27.20;93.30;;;;;;5037307;28;20037;-64
2022/08/15 08:44:03;;;;;;;12.02;10.40;;;27.50;92.20;;;;;;5039801;28;20063;-64
2022/08/15 08:47:10;;;;;;;12.27;10.13;;;27.60;92.30;;;;;;5046642;28;20045;-64
2022/08/15 08:49:47;;;;;;;12.40;10.82;;;27.70;91.80;;;;;;5035984;28;20045;-64
2022/08/15 08:52:40;;;;;;;12.77;10.65;;;27.70;91.50;;;;;;5040511;28;20049;-63
2022/08/15 08:55:22;;;;;;;12.50;11.20;;;27.70;91.30;;;;;;5046454;28;20092;-64
2022/08/15 08:57:59;;;;;;;14.70;11.57;;;27.70;91.40;;;;;;5045872;28;20045;-63
2022/08/15 09:00:36;;;;;;;12.07;10.73;;;27.70;91.50;;;;;;5047221;28;20052;-63
2022/08/15 09:03:12;;;;;;;12.38;10.95;;;27.70;91.70;;;;;;5038990;28;20072;-64
2022/08/15 09:05:51;;;;;;;12.38;11.02;;;27.60;92.00;;;;;;5031474;28;20045;-64
2022/08/15 09:08:38;;;;;;;13.75;12.20;;;27.70;91.90;;;;;;5038638;28;20676;-64
2022/08/15 09:11:26;;;;;;;14.38;12.85;;;27.60;91.90;;;;;;5031647;28;20045;-64
2022/08/15 09:13:55;;;;;;;12.90;11.60;;;27.40;92.00;;;;;;5038384;28;20049;-63
2022/08/15 09:16:32;;;;;;;12.98;10.70;;;27.20;92.10;;;;;;5046644;28;20045;-64
2022/08/15 09:19:17;;;;;;;15.25;11.45;;;27.30;92.60;;;;;;5036290;28;20147;-64
2022/08/15 09:21:44;;;;;;;13.98;12.57;;;27.30;92.60;;;;;;5042034;28;20041;-64
2022/08/15 09:24:11;;;;;;;13.80;12.40;;;27.20;92.70;;;;;;5033789;28;20037;-65
2022/08/15 09:26:49;;;;;;;13.57;12.13;;;27.10;92.70;;;;;;5037610;28;20040;-65
2022/08/15 09:29:43;;;;;;;12.95;11.55;;;27.20;92.90;;;;;;5033934;28;20119;-66
2022/08/15 09:32:27;;;;;;;12.52;11.02;;;27.10;93.10;;;;;;5042648;28;20115;-64
2022/08/15 09:35:17;;;;;;;14.35;12.20;;;27.20;93.40;;;;;;5040046;28;20267;-65
2022/08/15 09:37:55;;;;;;;15.07;12.43;;;27.10;93.50;;;;;;5042496;28;20052;-66
2022/08/15 09:40:46;;;;;;;12.38;11.07;;;26.90;93.70;;;;;;5037836;28;20121;-65
2022/08/15 09:43:28;;;;;;;13.60;12.05;;;26.80;94.00;;;;;;5030729;28;20060;-66
2022/08/15 09:46:24;;;;;;;15.15;13.20;;;26.70;94.10;;;;;;5031789;28;20060;-65
2022/08/15 09:49:06;;;;;;;13.55;12.18;;;26.50;94.20;;;;;;5046737;28;20112;-66
2022/08/15 09:52:06;;;;;;;13.27;11.15;;;26.40;94.70;;;;;;5038573;28;20345;-66
2022/08/15 09:54:44;;;;;;;12.23;9.88;;;26.30;95.10;;;;;;5041894;28;20118;-66
2022/08/15 09:57:28;;;;;;;11.23;10.00;;;26.20;95.10;;;;;;5029266;28;20507;-66
2022/08/15 10:00:15;;;;;;;9.23;8.13;;;26.20;95.10;;;;;;5035780;28;20042;-66
2022/08/15 10:02:42;;;;;;;11.98;8.15;;;26.20;95.10;;;;;;5040480;28;20476;-65
2022/08/15 10:05:41;;;;;;;9.98;7.57;;;26.20;94.80;;;;;;5032258;28;20037;-65
2022/08/15 10:08:09;;;;;;;9.63;8.05;;;26.20;94.50;;;;;;5040693;28;20414;-65
2022/08/15 10:10:49;;;;;;;11.48;8.40;;;26.20;94.50;;;;;;5037984;28;20198;-66
2022/08/15 10:13:26;;;;;;;9.40;7.30;;;26.10;94.10;;;;;;5043473;28;20160;-66
2022/08/15 10:15:53;;;;;;;10.02;6.88;;;26.10;94.10;;;;;;5033706;28;20139;-66
2022/08/15 10:18:22;;;;;;;12.15;7.13;;;26.20;94.00;;;;;;5039497;28;20045;-66
2022/08/15 10:21:00;;;;;;;8.57;6.72;;;26.30;93.80;;;;;;5027533;28;20049;-66
2022/08/15 10:23:52;;;;;;;11.25;7.35;;;26.40;93.60;;;;;;5053092;28;20068;-66
2022/08/15 10:26:30;;;;;;;12.65;8.40;;;26.60;93.40;;;;;;5044598;28;20060;-66
2022/08/15 10:29:27;;;;;;;9.50;7.68;;;26.80;93.00;;;;;;5052574;28;20535;-66
2022/08/15 10:31:54;;;;;;;9.65;7.97;;;26.90;93.10;;;;;;5033318;28;20464;-66
2022/08/15 10:34:38;;;;;;;8.35;7.28;;;27.10;92.60;;;;;;5046909;28;20044;-65
2022/08/15 10:37:15;;;;;;;10.43;8.00;;;27.20;92.40;;;;;;5049070;28;20142;-66
2022/08/15 10:39:59;;;;;;;10.20;8.15;;;27.30;92.20;;;;;;5049871;28;20079;-66
2022/08/15 10:42:36;;;;;;;11.43;7.68;;;27.50;92.40;;;;;;5043566;28;20131;-65
2022/08/15 10:45:20;;;;;;;9.48;7.00;;;27.60;92.50;;;;;;5046780;28;20460;-66
2022/08/15 10:48:06;;;;;;;9.10;7.82;;;27.80;92.40;;;;;;5040206;28;20432;-66
2022/08/15 10:50:50;;;;;;;9.40;7.45;;;28.00;92.30;;;;;;5049537;28;20850;-65
2022/08/15 10:53:24;;;;;;;10.95;6.97;;;28.00;91.90;;;;;;5044424;28;20040;-65
2022/08/15 10:55:50;;;;;;;;;;;28.10;92.00;;;;;;5046721;28;20092;-68
2022/08/15 10:58:22;;;;;;;9.15;7.30;;;28.20;92.10;;;;;;5048575;28;19960;-64
2022/08/15 11:01:10;;;;;;;10.88;8.77;;;28.20;91.70;;;;;;5049735;28;20112;-65
2022/08/15 11:03:49;;;;;;;9.70;7.15;;;28.20;91.40;;;;;;5052407;28;20474;-64
2022/08/15 11:06:21;;;;;;;9.98;6.82;;;28.30;91.50;;;;;;5046215;28;20486;-65
2022/08/15 11:08:54;;;;;;;9.40;7.38;;;28.30;91.40;;;;;;5053888;28;20049;-65
2022/08/15 11:11:22;;;;;;;11.18;7.00;;;28.20;90.70;;;;;;5052063;28;20048;-65
2022/08/15 11:13:58;;;;;;;9.05;6.53;;;28.20;90.50;;;;;;5053095;28;20040;-64
2022/08/15 11:16:47;;;;;;;8.40;6.40;;;28.20;90.60;;;;;;5049546;28;20033;-66
2022/08/15 11:19:21;;;;;;;10.48;7.00;;;28.20;90.90;;;;;;5052817;28;20097;-65
2022/08/15 11:21:51;;;;;;;9.90;6.63;;;28.30;90.90;;;;;;5054489;28;20044;-63
2022/08/15 11:24:30;;;;;;;10.45;6.88;;;28.40;90.80;;;;;;5056135;28;20045;-64
2022/08/15 11:27:24;;;;;;;9.52;6.57;;;28.30;90.60;;;;;;5047907;28;20155;-64
2022/08/15 11:29:52;;;;;;;10.20;7.18;;;28.30;90.80;;;;;;5050777;28;20041;-64
2022/08/15 11:32:31;;;;;;;8.38;6.50;;;28.20;90.40;;;;;;5050455;28;20037;-65
2022/08/15 11:34:59;;;;;;;7.68;5.72;;;28.20;90.40;;;;;;5050414;28;21590;-65
2022/08/15 11:37:32;;;;;;;8.18;5.30;;;28.30;90.70;;;;;;5047536;28;20067;-65
2022/08/15 11:39:58;;;;;;;8.23;5.15;;;28.40;90.70;;;;;;5050949;28;20045;-64
2022/08/15 11:42:29;;;;;;;8.63;5.50;;;28.40;90.60;;;;;;5045688;28;20061;-64
2022/08/15 11:45:05;;;;;;;9.18;4.95;;;28.50;90.10;;;;;;5043942;28;20053;-64
2022/08/15 11:47:35;;;;;;;8.35;4.53;;;28.50;89.50;;;;;;5050558;28;20379;-64
2022/08/15 11:50:06;;;;;;;6.78;4.65;;;28.70;89.90;;;;;;5049359;28;20450;-64
2022/08/15 11:52:35;;;;;;;7.25;4.32;;;28.70;89.20;;;;;;5043210;28;20044;-64
2022/08/15 11:55:19;;;;;;;7.13;4.35;;;28.90;88.90;;;;;;5041544;28;20049;-64
2022/08/15 11:57:51;;;;;;;7.22;4.30;;;29.10;88.30;;;;;;5049088;28;20367;-64
2022/08/15 12:00:28;;;;;;;6.75;4.53;;;29.30;85.90;;;;;;5044740;28;20033;-65
2022/08/15 12:02:54;;;;;;;7.63;4.53;;;29.40;84.80;;;;;;5035927;28;20056;-65
2022/08/15 12:05:34;;;;;;;7.53;4.57;;;29.50;84.10;;;;;;5040722;28;20052;-64
2022/08/15 12:08:04;;;;;;;6.45;4.45;;;29.50;82.00;;;;;;5039995;28;20107;-64
2022/08/15 12:10:41;;;;;;;8.10;5.43;;;29.70;82.90;;;;;;5045728;28;20391;-64
2022/08/15 12:13:14;;;;;;;7.97;4.88;;;29.70;81.80;;;;;;5046480;28;20052;-64
2022/08/15 12:15:42;;;;;;;6.70;4.32;;;29.80;82.00;;;;;;5047606;28;20500;-64
2022/08/15 12:18:23;;;;;;;8.23;4.50;;;29.80;81.70;;;;;;5047359;28;20056;-64
2022/08/15 12:20:55;;;;;;;8.02;5.18;;;29.80;81.40;;;;;;5048200;28;20417;-64
2022/08/15 12:23:36;;;;;;;7.80;4.95;;;29.90;80.50;;;;;;5039801;28;20036;-64
2022/08/15 12:26:04;;;;;;;7.97;5.20;;;29.80;80.10;;;;;;5043379;28;20060;-64
2022/08/15 12:28:30;;;;;;;7.53;5.00;;;29.90;79.90;;;;;;5038847;28;20091;-64
2022/08/15 12:31:24;;;;;;;8.38;5.55;;;29.80;79.90;;;;;;5047423;28;20079;-64
2022/08/15 12:34:01;;;;;;;8.60;5.33;;;29.70;80.00;;;;;;5044374;28;20065;-64
2022/08/15 12:36:28;;;;;;;8.20;4.95;;;29.60;80.00;;;;;;5045053;28;20063;-64
2022/08/15 12:38:54;;;;;;;6.90;4.95;;;29.50;80.50;;;;;;5046615;28;20044;-64
2022/08/15 12:41:19;;;;;;;6.70;4.50;;;29.50;80.40;;;;;;5047110;28;20037;-64
2022/08/15 12:43:45;;;;;;;9.93;4.93;;;29.50;79.80;;;;;;5044953;28;20037;-64
2022/08/15 12:46:11;;;;;;;6.70;4.40;;;29.50;79.70;;;;;;5046451;28;20046;-64
2022/08/15 12:48:39;;;;;;;7.90;4.13;;;29.60;79.40;;;;;;5048667;28;20045;-65
2022/08/15 12:51:07;;;;;;;5.63;4.32;;;29.80;79.30;;;;;;5046850;28;20041;-64
2022/08/15 12:53:33;;;;;;;6.55;4.15;;;29.90;78.40;;;;;;5043789;28;20150;-63
2022/08/15 12:55:59;;;;;;;7.95;4.70;;;30.20;77.80;;;;;;5044568;28;20052;-64
2022/08/15 12:58:25;;;;;;;8.32;4.25;;;30.40;77.10;;;;;;5048013;28;20044;-64
2022/08/15 13:00:53;;;;;;;8.13;4.78;;;30.40;77.30;;;;;;5047815;28;20067;-64
2022/08/15 13:03:23;;;;;;;10.68;4.40;;;30.50;77.10;;;;;;5045840;28;20429;-64
2022/08/15 13:06:14;;;;;;;7.60;4.35;;;30.60;76.70;;;;;;5037548;28;20041;-64
2022/08/15 13:08:40;;;;;;;8.07;4.60;;;30.30;77.20;;;;;;5042337;28;20097;-64
2022/08/15 13:11:08;;;;;;;7.85;3.90;;;30.30;76.60;;;;;;5047174;28;20564;-64